VAS453 EYVI-UUEE
Flight info
| Callsign | VAS453 |
|---|---|
| Flight time | 1h 14m |
| Altitude | 35000 |
| Route | LAFAT L29 BENIM M997 RATIN L999 AGLAN M864 DIPOP DIPOP3E |
| Aircraft | B738/M-SDE2E3FGHIRWXY/LB1 |
Departure
| Time | 2026-05-08 16:12 |
|---|---|
| Airport | Vilnius International Airport (EYVI) |
Arrival
| Time | 2026-05-08 17:27 |
|---|---|
| Airport | Sheremetyevo International Airport (UUEE) |
| Time | Latitude | Longitude | Altitude | Speed | Heading |
|---|---|---|---|---|---|
| 2026-05-08 15:49 | 54.64084 | 25.28272 | 637 ft | 0 kts | 77° |
| 2026-05-08 16:04 | 54.64083 | 25.28266 | 637 ft | 2 kts | 77° |
| 2026-05-08 16:04 | 54.64079 | 25.28238 | 642 ft | 2 kts | 76° |
| 2026-05-08 16:04 | 54.64075 | 25.28210 | 638 ft | 2 kts | 81° |
| 2026-05-08 16:04 | 54.64078 | 25.28183 | 639 ft | 2 kts | 148° |
| 2026-05-08 16:05 | 54.64093 | 25.28173 | 639 ft | 2 kts | 167° |
| 2026-05-08 16:05 | 54.64107 | 25.28168 | 636 ft | 1 kts | 167° |
| 2026-05-08 16:08 | 54.64106 | 25.28168 | 636 ft | 1 kts | 167° |
| 2026-05-08 16:08 | 54.64088 | 25.28175 | 637 ft | 4 kts | 167° |
| 2026-05-08 16:08 | 54.64054 | 25.28190 | 636 ft | 8 kts | 167° |
| 2026-05-08 16:09 | 54.63967 | 25.28224 | 635 ft | 17 kts | 167° |
| 2026-05-08 16:09 | 54.63883 | 25.28257 | 630 ft | 22 kts | 167° |
| 2026-05-08 16:09 | 54.63651 | 25.28349 | 625 ft | 27 kts | 167° |
| 2026-05-08 16:09 | 54.63480 | 25.28308 | 610 ft | 26 kts | 202° |
| 2026-05-08 16:10 | 54.63324 | 25.28198 | 622 ft | 23 kts | 201° |
| 2026-05-08 16:10 | 54.63198 | 25.28111 | 607 ft | 19 kts | 201° |
| 2026-05-08 16:10 | 54.63059 | 25.28016 | 613 ft | 25 kts | 202° |
| 2026-05-08 16:10 | 54.62876 | 25.27890 | 602 ft | 31 kts | 201° |
| 2026-05-08 16:11 | 54.62667 | 25.27743 | 600 ft | 32 kts | 202° |
| 2026-05-08 16:11 | 54.62483 | 25.27702 | 616 ft | 24 kts | 140° |
| 2026-05-08 16:11 | 54.62436 | 25.27898 | 609 ft | 14 kts | 29° |
| 2026-05-08 16:11 | 54.62446 | 25.27905 | 607 ft | 0 kts | 21° |
| 2026-05-08 16:12 | 54.62515 | 25.27952 | 603 ft | 39 kts | 22° |
| 2026-05-08 16:12 | 54.63013 | 25.28298 | 603 ft | 114 kts | 22° |
| 2026-05-08 16:12 | 54.63915 | 25.28927 | 839 ft | 154 kts | 22° |
| 2026-05-08 16:12 | 54.64974 | 25.29675 | 1534 ft | 173 kts | 24° |
| 2026-05-08 16:13 | 54.66093 | 25.30439 | 2399 ft | 179 kts | 25° |
| 2026-05-08 16:13 | 54.67324 | 25.31297 | 2646 ft | 205 kts | 25° |
| 2026-05-08 16:13 | 54.68689 | 25.32246 | 3245 ft | 215 kts | 25° |
| 2026-05-08 16:13 | 54.70097 | 25.33221 | 4031 ft | 220 kts | 25° |
| 2026-05-08 16:14 | 54.71531 | 25.34212 | 4774 ft | 227 kts | 26° |
| 2026-05-08 16:14 | 54.73032 | 25.35251 | 5502 ft | 235 kts | 25° |
| 2026-05-08 16:14 | 54.74580 | 25.36324 | 6222 ft | 242 kts | 24° |
| 2026-05-08 16:14 | 54.76147 | 25.37410 | 6972 ft | 246 kts | 24° |
| 2026-05-08 16:15 | 54.77733 | 25.38511 | 7714 ft | 249 kts | 24° |
| 2026-05-08 16:15 | 54.79262 | 25.39960 | 8438 ft | 251 kts | 44° |
| 2026-05-08 16:15 | 54.80362 | 25.42275 | 9141 ft | 256 kts | 58° |
| 2026-05-08 16:15 | 54.80997 | 25.45248 | 9588 ft | 270 kts | 80° |
| 2026-05-08 16:16 | 54.81253 | 25.48531 | 10201 ft | 278 kts | 84° |
| 2026-05-08 16:16 | 54.81445 | 25.51942 | 10599 ft | 296 kts | 85° |
| 2026-05-08 16:16 | 54.81653 | 25.55636 | 10870 ft | 316 kts | 85° |
| 2026-05-08 16:16 | 54.81882 | 25.59429 | 11506 ft | 321 kts | 85° |
| 2026-05-08 16:17 | 54.82132 | 25.63323 | 12218 ft | 326 kts | 85° |
| 2026-05-08 16:17 | 54.82306 | 25.65946 | 12682 ft | 330 kts | 85° |
| 2026-05-08 16:17 | 54.82668 | 25.71303 | 13545 ft | 340 kts | 85° |
| 2026-05-08 16:17 | 54.82942 | 25.75370 | 14230 ft | 346 kts | 85° |
| 2026-05-08 16:18 | 54.83262 | 25.79551 | 14901 ft | 351 kts | 82° |
| 2026-05-08 16:18 | 54.83791 | 25.83731 | 15565 ft | 357 kts | 78° |
| 2026-05-08 16:18 | 54.84409 | 25.87910 | 16203 ft | 364 kts | 77° |
| 2026-05-08 16:18 | 54.85057 | 25.92215 | 16882 ft | 368 kts | 77° |
| 2026-05-08 16:19 | 54.85694 | 25.96532 | 17544 ft | 373 kts | 78° |
| 2026-05-08 16:19 | 54.86328 | 26.00953 | 18192 ft | 379 kts | 78° |
| 2026-05-08 16:19 | 54.86747 | 26.03926 | 18592 ft | 383 kts | 78° |
| 2026-05-08 16:19 | 54.87582 | 26.09939 | 19421 ft | 387 kts | 78° |
| 2026-05-08 16:20 | 54.88000 | 26.12965 | 19837 ft | 389 kts | 78° |
| 2026-05-08 16:20 | 54.88839 | 26.19078 | 20620 ft | 394 kts | 79° |
| 2026-05-08 16:20 | 54.89263 | 26.22181 | 21004 ft | 397 kts | 79° |
| 2026-05-08 16:20 | 54.89905 | 26.26886 | 21584 ft | 401 kts | 79° |
| 2026-05-08 16:21 | 54.90550 | 26.31625 | 22162 ft | 404 kts | 79° |
| 2026-05-08 16:21 | 54.91199 | 26.36417 | 22725 ft | 408 kts | 79° |
| 2026-05-08 16:21 | 54.91847 | 26.41216 | 23255 ft | 413 kts | 79° |
| 2026-05-08 16:21 | 54.92508 | 26.46118 | 23771 ft | 417 kts | 79° |
| 2026-05-08 16:22 | 54.93163 | 26.50996 | 24219 ft | 420 kts | 79° |
| 2026-05-08 16:22 | 54.93830 | 26.55973 | 24678 ft | 423 kts | 79° |
| 2026-05-08 16:22 | 54.94502 | 26.61009 | 25105 ft | 427 kts | 80° |
| 2026-05-08 16:22 | 54.95175 | 26.66069 | 25536 ft | 430 kts | 80° |
| 2026-05-08 16:23 | 54.95845 | 26.71126 | 25968 ft | 433 kts | 80° |
| 2026-05-08 16:23 | 54.96527 | 26.76286 | 26386 ft | 437 kts | 80° |
| 2026-05-08 16:23 | 54.97202 | 26.81418 | 26773 ft | 441 kts | 80° |
| 2026-05-08 16:23 | 54.97890 | 26.86659 | 27185 ft | 444 kts | 80° |
| 2026-05-08 16:24 | 54.98578 | 26.91927 | 27595 ft | 447 kts | 80° |
| 2026-05-08 16:24 | 54.99263 | 26.97184 | 28001 ft | 450 kts | 81° |
| 2026-05-08 16:24 | 54.99960 | 27.02559 | 28378 ft | 454 kts | 81° |
| 2026-05-08 16:24 | 55.00659 | 27.07963 | 28737 ft | 457 kts | 81° |
| 2026-05-08 16:25 | 55.01358 | 27.13393 | 29123 ft | 460 kts | 81° |
| 2026-05-08 16:25 | 55.02053 | 27.18808 | 29478 ft | 463 kts | 81° |
| 2026-05-08 16:25 | 55.02760 | 27.24345 | 29827 ft | 467 kts | 81° |
| 2026-05-08 16:25 | 55.03457 | 27.29820 | 30169 ft | 469 kts | 81° |
| 2026-05-08 16:26 | 55.04167 | 27.35407 | 30489 ft | 471 kts | 81° |
| 2026-05-08 16:26 | 55.04875 | 27.41005 | 30923 ft | 470 kts | 81° |
| 2026-05-08 16:26 | 55.05567 | 27.46521 | 31381 ft | 467 kts | 81° |
| 2026-05-08 16:26 | 55.06261 | 27.52135 | 31830 ft | 466 kts | 81° |
| 2026-05-08 16:27 | 55.06931 | 27.57614 | 32211 ft | 465 kts | 82° |
| 2026-05-08 16:27 | 55.07604 | 27.63151 | 32604 ft | 465 kts | 82° |
| 2026-05-08 16:27 | 55.08269 | 27.68630 | 32975 ft | 464 kts | 82° |
| 2026-05-08 16:27 | 55.08937 | 27.74156 | 33391 ft | 463 kts | 82° |
| 2026-05-08 16:28 | 55.09597 | 27.79622 | 33817 ft | 462 kts | 82° |
| 2026-05-08 16:28 | 55.10257 | 27.85112 | 34179 ft | 461 kts | 82° |
| 2026-05-08 16:28 | 55.10915 | 27.90608 | 34468 ft | 461 kts | 82° |
| 2026-05-08 16:28 | 55.11570 | 27.96102 | 34766 ft | 461 kts | 82° |
| 2026-05-08 16:29 | 55.12213 | 28.01517 | 35061 ft | 461 kts | 82° |
| 2026-05-08 16:29 | 55.12868 | 28.07053 | 35098 ft | 466 kts | 82° |
| 2026-05-08 16:29 | 55.14174 | 28.18147 | 35095 ft | 465 kts | 81° |
| 2026-05-08 16:30 | 55.15188 | 28.29217 | 35115 ft | 457 kts | 87° |
| 2026-05-08 16:30 | 55.15819 | 28.40218 | 35119 ft | 458 kts | 88° |
| 2026-05-08 16:31 | 55.16420 | 28.51302 | 35121 ft | 460 kts | 88° |
| 2026-05-08 16:31 | 55.17053 | 28.62491 | 35110 ft | 461 kts | 87° |
| 2026-05-08 16:32 | 55.17693 | 28.73611 | 35113 ft | 462 kts | 87° |
| 2026-05-08 16:32 | 55.18334 | 28.84845 | 35115 ft | 462 kts | 87° |
| 2026-05-08 16:33 | 55.18961 | 28.96036 | 35113 ft | 463 kts | 87° |
| 2026-05-08 16:33 | 55.19577 | 29.07241 | 35117 ft | 463 kts | 87° |
| 2026-05-08 16:34 | 55.20181 | 29.18425 | 35115 ft | 463 kts | 87° |
| 2026-05-08 16:34 | 55.20775 | 29.29601 | 35120 ft | 463 kts | 87° |
| 2026-05-08 16:35 | 55.21363 | 29.40872 | 35119 ft | 463 kts | 87° |
| 2026-05-08 16:35 | 55.21937 | 29.52072 | 35120 ft | 463 kts | 87° |
| 2026-05-08 16:36 | 55.22500 | 29.63271 | 35131 ft | 463 kts | 87° |
| 2026-05-08 16:36 | 55.23058 | 29.74569 | 35121 ft | 464 kts | 87° |
| 2026-05-08 16:37 | 55.23601 | 29.85784 | 35128 ft | 464 kts | 87° |
| 2026-05-08 16:37 | 55.24139 | 29.97107 | 35128 ft | 464 kts | 87° |
| 2026-05-08 16:38 | 55.24663 | 30.08360 | 35128 ft | 465 kts | 87° |
| 2026-05-08 16:38 | 55.25177 | 30.19619 | 35127 ft | 465 kts | 87° |
| 2026-05-08 16:39 | 55.25683 | 30.30955 | 35130 ft | 465 kts | 87° |
| 2026-05-08 16:39 | 55.26178 | 30.42252 | 35131 ft | 466 kts | 87° |
| 2026-05-08 16:40 | 55.26661 | 30.53530 | 35130 ft | 466 kts | 87° |
| 2026-05-08 16:40 | 55.27139 | 30.64921 | 35132 ft | 467 kts | 88° |
| 2026-05-08 16:41 | 55.27605 | 30.76265 | 35135 ft | 467 kts | 88° |
| 2026-05-08 16:42 | 55.29175 | 30.93051 | 35152 ft | 468 kts | 71° |
| 2026-05-08 16:42 | 55.31337 | 31.03893 | 35137 ft | 469 kts | 70° |
| 2026-05-08 16:43 | 55.33461 | 31.14711 | 35149 ft | 469 kts | 71° |
| 2026-05-08 16:43 | 55.35517 | 31.25567 | 35147 ft | 470 kts | 71° |
| 2026-05-08 16:44 | 55.37571 | 31.36503 | 35147 ft | 470 kts | 71° |
| 2026-05-08 16:44 | 55.39605 | 31.47401 | 35154 ft | 471 kts | 71° |
| 2026-05-08 16:45 | 55.41641 | 31.58368 | 35153 ft | 471 kts | 71° |
| 2026-05-08 16:45 | 55.43656 | 31.69284 | 35151 ft | 471 kts | 71° |
| 2026-05-08 16:46 | 55.45679 | 31.80308 | 35150 ft | 471 kts | 71° |
| 2026-05-08 16:46 | 55.47679 | 31.91268 | 35155 ft | 471 kts | 71° |
| 2026-05-08 16:47 | 55.49669 | 32.02244 | 35154 ft | 471 kts | 71° |
| 2026-05-08 16:47 | 55.51646 | 32.13211 | 35160 ft | 471 kts | 72° |
| 2026-05-08 16:48 | 55.53623 | 32.24243 | 35158 ft | 471 kts | 71° |
| 2026-05-08 16:48 | 55.55592 | 32.35298 | 35157 ft | 470 kts | 72° |
| 2026-05-08 16:49 | 55.57537 | 32.46279 | 35160 ft | 470 kts | 72° |
| 2026-05-08 16:49 | 55.59487 | 32.57362 | 35162 ft | 470 kts | 72° |
| 2026-05-08 16:50 | 55.61413 | 32.68377 | 35160 ft | 470 kts | 72° |
| 2026-05-08 16:50 | 55.63332 | 32.79415 | 35165 ft | 470 kts | 72° |
| 2026-05-08 16:51 | 55.65240 | 32.90459 | 35166 ft | 471 kts | 72° |
| 2026-05-08 16:51 | 55.67149 | 33.01574 | 35167 ft | 471 kts | 72° |
| 2026-05-08 16:52 | 55.69039 | 33.12649 | 35166 ft | 471 kts | 72° |
| 2026-05-08 16:52 | 55.70930 | 33.23792 | 35167 ft | 470 kts | 72° |
| 2026-05-08 16:53 | 55.73727 | 33.40426 | 35163 ft | 470 kts | 72° |
| 2026-05-08 16:53 | 55.75582 | 33.51546 | 34932 ft | 471 kts | 72° |
| 2026-05-08 16:54 | 55.76505 | 33.57106 | 34590 ft | 466 kts | 72° |
| 2026-05-08 16:54 | 55.77406 | 33.62550 | 34205 ft | 462 kts | 72° |
| 2026-05-08 16:54 | 55.78306 | 33.68007 | 33761 ft | 458 kts | 72° |
| 2026-05-08 16:54 | 55.79200 | 33.73437 | 33335 ft | 454 kts | 72° |
| 2026-05-08 16:55 | 55.80081 | 33.78810 | 32937 ft | 450 kts | 72° |
| 2026-05-08 16:55 | 55.80943 | 33.84080 | 32540 ft | 447 kts | 72° |
| 2026-05-08 16:55 | 55.81810 | 33.89400 | 32149 ft | 443 kts | 72° |
| 2026-05-08 16:55 | 55.82665 | 33.94663 | 31756 ft | 440 kts | 73° |
| 2026-05-08 16:56 | 55.83500 | 33.99816 | 31377 ft | 437 kts | 73° |
| 2026-05-08 16:56 | 55.84352 | 34.05086 | 30989 ft | 434 kts | 73° |
| 2026-05-08 16:56 | 55.85171 | 34.10174 | 30621 ft | 432 kts | 73° |
| 2026-05-08 16:56 | 55.85996 | 34.15309 | 30240 ft | 429 kts | 73° |
| 2026-05-08 16:57 | 55.86815 | 34.20427 | 29799 ft | 427 kts | 73° |
| 2026-05-08 16:57 | 55.87626 | 34.25498 | 29386 ft | 423 kts | 73° |
| 2026-05-08 16:57 | 55.88416 | 34.30463 | 29006 ft | 419 kts | 73° |
| 2026-05-08 16:57 | 55.89133 | 34.35495 | 28598 ft | 416 kts | 79° |
| 2026-05-08 16:58 | 55.89424 | 34.40583 | 28319 ft | 409 kts | 88° |
| 2026-05-08 16:58 | 55.89519 | 34.45641 | 27928 ft | 407 kts | 89° |
| 2026-05-08 16:58 | 55.89582 | 34.50681 | 27554 ft | 405 kts | 90° |
| 2026-05-08 16:58 | 55.89644 | 34.55637 | 27181 ft | 403 kts | 90° |
| 2026-05-08 16:59 | 55.89715 | 34.60642 | 26789 ft | 402 kts | 89° |
| 2026-05-08 16:59 | 55.89792 | 34.65569 | 26420 ft | 402 kts | 89° |
| 2026-05-08 16:59 | 55.89875 | 34.70550 | 26036 ft | 401 kts | 89° |
| 2026-05-08 16:59 | 55.89960 | 34.75503 | 25656 ft | 398 kts | 89° |
| 2026-05-08 17:00 | 55.90043 | 34.80452 | 25274 ft | 396 kts | 89° |
| 2026-05-08 17:00 | 55.90123 | 34.85301 | 24899 ft | 395 kts | 90° |
| 2026-05-08 17:00 | 55.90202 | 34.90195 | 24527 ft | 393 kts | 90° |
| 2026-05-08 17:00 | 55.90279 | 34.95052 | 24153 ft | 391 kts | 90° |
| 2026-05-08 17:01 | 55.90352 | 34.99846 | 23768 ft | 390 kts | 90° |
| 2026-05-08 17:01 | 55.90424 | 35.04704 | 23320 ft | 389 kts | 90° |
| 2026-05-08 17:01 | 55.90495 | 35.09509 | 22955 ft | 386 kts | 90° |
| 2026-05-08 17:01 | 55.90564 | 35.14228 | 22573 ft | 383 kts | 90° |
| 2026-05-08 17:02 | 55.90632 | 35.18989 | 22196 ft | 381 kts | 90° |
| 2026-05-08 17:02 | 55.90698 | 35.23691 | 21830 ft | 378 kts | 90° |
| 2026-05-08 17:02 | 55.90761 | 35.28330 | 21468 ft | 376 kts | 90° |
| 2026-05-08 17:02 | 55.90823 | 35.32997 | 21097 ft | 374 kts | 90° |
| 2026-05-08 17:03 | 55.90878 | 35.37236 | 20770 ft | 372 kts | 90° |
| 2026-05-08 17:03 | 55.90936 | 35.41882 | 20398 ft | 370 kts | 90° |
| 2026-05-08 17:03 | 55.90991 | 35.46471 | 20033 ft | 369 kts | 90° |
| 2026-05-08 17:03 | 55.91044 | 35.50986 | 19672 ft | 367 kts | 90° |
| 2026-05-08 17:04 | 55.91096 | 35.55539 | 19308 ft | 366 kts | 91° |
| 2026-05-08 17:04 | 55.91146 | 35.60074 | 18940 ft | 365 kts | 91° |
| 2026-05-08 17:04 | 55.91194 | 35.64564 | 18569 ft | 365 kts | 91° |
| 2026-05-08 17:04 | 55.91240 | 35.69090 | 18176 ft | 363 kts | 91° |
| 2026-05-08 17:05 | 55.91286 | 35.73595 | 17780 ft | 361 kts | 91° |
| 2026-05-08 17:05 | 55.91329 | 35.78026 | 17412 ft | 360 kts | 91° |
| 2026-05-08 17:05 | 55.91370 | 35.82488 | 17044 ft | 357 kts | 91° |
| 2026-05-08 17:05 | 55.91476 | 35.86925 | 16676 ft | 356 kts | 86° |
| 2026-05-08 17:06 | 55.91788 | 35.91275 | 16313 ft | 355 kts | 83° |
| 2026-05-08 17:06 | 55.92166 | 35.95605 | 15959 ft | 354 kts | 82° |
| 2026-05-08 17:06 | 55.92539 | 35.99931 | 15602 ft | 352 kts | 83° |
| 2026-05-08 17:06 | 55.92888 | 36.04262 | 15251 ft | 351 kts | 84° |
| 2026-05-08 17:07 | 55.93218 | 36.08574 | 14901 ft | 349 kts | 84° |
| 2026-05-08 17:07 | 55.93550 | 36.12804 | 14554 ft | 348 kts | 80° |
| 2026-05-08 17:07 | 55.94433 | 36.16813 | 14187 ft | 348 kts | 55° |
| 2026-05-08 17:07 | 55.96073 | 36.19932 | 13828 ft | 343 kts | 33° |
| 2026-05-08 17:08 | 55.98168 | 36.21892 | 13449 ft | 336 kts | 18° |
| 2026-05-08 17:08 | 56.00312 | 36.23388 | 13095 ft | 333 kts | 17° |
| 2026-05-08 17:08 | 56.02487 | 36.24890 | 12737 ft | 332 kts | 17° |
| 2026-05-08 17:08 | 56.04617 | 36.26382 | 12399 ft | 331 kts | 17° |
| 2026-05-08 17:09 | 56.06066 | 36.27406 | 12147 ft | 330 kts | 17° |
| 2026-05-08 17:09 | 56.08895 | 36.29422 | 11690 ft | 329 kts | 17° |
| 2026-05-08 17:09 | 56.10308 | 36.30434 | 11468 ft | 328 kts | 17° |
| 2026-05-08 17:09 | 56.13117 | 36.32447 | 10946 ft | 329 kts | 17° |
| 2026-05-08 17:10 | 56.14566 | 36.33486 | 10626 ft | 332 kts | 18° |
| 2026-05-08 17:10 | 56.16676 | 36.35055 | 10243 ft | 334 kts | 23° |
| 2026-05-08 17:10 | 56.18619 | 36.37315 | 10094 ft | 329 kts | 34° |
| 2026-05-08 17:10 | 56.20412 | 36.39827 | 9913 ft | 322 kts | 36° |
| 2026-05-08 17:11 | 56.22146 | 36.42267 | 9642 ft | 318 kts | 34° |
| 2026-05-08 17:11 | 56.23917 | 36.44698 | 9228 ft | 320 kts | 34° |
| 2026-05-08 17:11 | 56.25567 | 36.47385 | 8853 ft | 323 kts | 52° |
| 2026-05-08 17:11 | 56.26570 | 36.50908 | 8538 ft | 315 kts | 74° |
| 2026-05-08 17:12 | 56.27142 | 36.54681 | 8248 ft | 306 kts | 77° |
| 2026-05-08 17:12 | 56.27660 | 36.58360 | 7950 ft | 300 kts | 77° |
| 2026-05-08 17:12 | 56.28176 | 36.61955 | 7676 ft | 299 kts | 76° |
| 2026-05-08 17:12 | 56.28705 | 36.65571 | 7390 ft | 297 kts | 76° |
| 2026-05-08 17:13 | 56.29237 | 36.69163 | 7124 ft | 296 kts | 76° |
| 2026-05-08 17:13 | 56.29624 | 36.72709 | 6919 ft | 289 kts | 93° |
| 2026-05-08 17:13 | 56.29334 | 36.76245 | 6705 ft | 283 kts | 104° |
| 2026-05-08 17:13 | 56.28909 | 36.79728 | 6456 ft | 283 kts | 105° |
| 2026-05-08 17:14 | 56.28484 | 36.83158 | 6129 ft | 282 kts | 99° |
| 2026-05-08 17:14 | 56.28064 | 36.86564 | 5892 ft | 273 kts | 99° |
| 2026-05-08 17:14 | 56.27674 | 36.89840 | 5619 ft | 262 kts | 98° |
| 2026-05-08 17:14 | 56.27302 | 36.93026 | 5357 ft | 257 kts | 98° |
| 2026-05-08 17:15 | 56.26941 | 36.96166 | 5112 ft | 255 kts | 97° |
| 2026-05-08 17:15 | 56.26591 | 36.99226 | 5016 ft | 250 kts | 97° |
| 2026-05-08 17:15 | 56.26248 | 37.02306 | 5031 ft | 254 kts | 102° |
| 2026-05-08 17:15 | 56.25880 | 37.05546 | 5025 ft | 271 kts | 102° |
| 2026-05-08 17:16 | 56.25497 | 37.08900 | 4995 ft | 274 kts | 102° |
| 2026-05-08 17:16 | 56.25115 | 37.12247 | 4987 ft | 272 kts | 102° |
| 2026-05-08 17:16 | 56.24737 | 37.15567 | 4986 ft | 269 kts | 102° |
| 2026-05-08 17:16 | 56.24362 | 37.18849 | 4985 ft | 267 kts | 102° |
| 2026-05-08 17:17 | 56.23988 | 37.22112 | 4981 ft | 266 kts | 102° |
| 2026-05-08 17:17 | 56.23611 | 37.25401 | 4997 ft | 270 kts | 102° |
| 2026-05-08 17:17 | 56.23230 | 37.28722 | 4995 ft | 272 kts | 102° |
| 2026-05-08 17:17 | 56.22847 | 37.32050 | 4984 ft | 272 kts | 102° |
| 2026-05-08 17:18 | 56.22462 | 37.35382 | 4988 ft | 272 kts | 102° |
| 2026-05-08 17:18 | 56.22078 | 37.38704 | 4997 ft | 271 kts | 102° |
| 2026-05-08 17:18 | 56.21694 | 37.42021 | 4988 ft | 271 kts | 102° |
| 2026-05-08 17:18 | 56.21311 | 37.45327 | 4989 ft | 271 kts | 102° |
| 2026-05-08 17:19 | 56.20916 | 37.48715 | 4988 ft | 271 kts | 102° |
| 2026-05-08 17:19 | 56.20538 | 37.51943 | 4989 ft | 269 kts | 102° |
| 2026-05-08 17:19 | 56.20157 | 37.55197 | 4970 ft | 262 kts | 102° |
| 2026-05-08 17:19 | 56.19707 | 37.58292 | 4929 ft | 252 kts | 117° |
| 2026-05-08 17:20 | 56.18687 | 37.60743 | 4865 ft | 241 kts | 136° |
| 2026-05-08 17:20 | 56.17545 | 37.62827 | 4756 ft | 233 kts | 136° |
| 2026-05-08 17:20 | 56.16412 | 37.64882 | 4668 ft | 225 kts | 136° |
| 2026-05-08 17:20 | 56.15320 | 37.66868 | 4457 ft | 223 kts | 136° |
| 2026-05-08 17:21 | 56.14234 | 37.68851 | 4202 ft | 223 kts | 135° |
| 2026-05-08 17:21 | 56.13152 | 37.70827 | 4053 ft | 223 kts | 135° |
| 2026-05-08 17:21 | 56.12070 | 37.72806 | 4008 ft | 222 kts | 135° |
| 2026-05-08 17:21 | 56.10991 | 37.74778 | 3995 ft | 220 kts | 135° |
| 2026-05-08 17:22 | 56.09865 | 37.76619 | 3982 ft | 219 kts | 152° |
| 2026-05-08 17:22 | 56.08424 | 37.77200 | 4000 ft | 214 kts | 188° |
| 2026-05-08 17:22 | 56.06968 | 37.76606 | 4000 ft | 217 kts | 200° |
| 2026-05-08 17:22 | 56.05523 | 37.75763 | 4007 ft | 220 kts | 200° |
| 2026-05-08 17:23 | 56.04068 | 37.74903 | 3930 ft | 221 kts | 200° |
| 2026-05-08 17:23 | 56.02684 | 37.73844 | 3785 ft | 211 kts | 223° |
| 2026-05-08 17:23 | 56.01946 | 37.71798 | 3691 ft | 194 kts | 252° |
| 2026-05-08 17:23 | 56.01448 | 37.69498 | 3377 ft | 197 kts | 254° |
| 2026-05-08 17:24 | 56.01012 | 37.67206 | 3247 ft | 199 kts | 259° |
| 2026-05-08 17:24 | 56.00636 | 37.64785 | 3027 ft | 204 kts | 260° |
| 2026-05-08 17:24 | 56.00271 | 37.62361 | 2755 ft | 198 kts | 260° |
| 2026-05-08 17:24 | 55.99923 | 37.60045 | 2509 ft | 187 kts | 260° |
| 2026-05-08 17:25 | 55.99598 | 37.57902 | 2242 ft | 172 kts | 260° |
| 2026-05-08 17:25 | 55.99300 | 37.55928 | 2013 ft | 160 kts | 261° |
| 2026-05-08 17:25 | 55.99016 | 37.54043 | 1779 ft | 155 kts | 259° |
| 2026-05-08 17:25 | 55.98734 | 37.52174 | 1554 ft | 153 kts | 259° |
| 2026-05-08 17:26 | 55.98468 | 37.50384 | 1367 ft | 150 kts | 258° |
| 2026-05-08 17:26 | 55.98201 | 37.48607 | 1160 ft | 145 kts | 257° |
| 2026-05-08 17:26 | 55.97943 | 37.46884 | 978 ft | 141 kts | 256° |
| 2026-05-08 17:26 | 55.97696 | 37.45216 | 783 ft | 141 kts | 257° |
| 2026-05-08 17:27 | 55.97448 | 37.43544 | 642 ft | 134 kts | 256° |
| 2026-05-08 17:27 | 55.97238 | 37.42130 | 640 ft | 97 kts | 255° |
| 2026-05-08 17:27 | 55.97134 | 37.41442 | 643 ft | 29 kts | 245° |
| 2026-05-08 17:27 | 55.97018 | 37.41418 | 638 ft | 16 kts | 163° |
| 2026-05-08 17:28 | 55.96986 | 37.41433 | 638 ft | 0 kts | 168° |
| 2026-05-08 17:29 | 55.96985 | 37.41433 | 638 ft | 1 kts | 168° |
| 2026-05-08 17:29 | 55.96938 | 37.41481 | 638 ft | 14 kts | 117° |
| 2026-05-08 17:29 | 55.96963 | 37.41711 | 640 ft | 12 kts | 77° |
| 2026-05-08 17:30 | 55.96975 | 37.41793 | 643 ft | 11 kts | 75° |
| 2026-05-08 17:30 | 55.97002 | 37.41968 | 642 ft | 17 kts | 75° |
| 2026-05-08 17:30 | 55.97037 | 37.42206 | 641 ft | 22 kts | 75° |
| 2026-05-08 17:30 | 55.97081 | 37.42507 | 641 ft | 28 kts | 75° |
| 2026-05-08 17:31 | 55.97124 | 37.42795 | 638 ft | 13 kts | 75° |
| 2026-05-08 17:31 | 55.97144 | 37.42926 | 647 ft | 10 kts | 74° |
| 2026-05-08 17:31 | 55.97151 | 37.43044 | 641 ft | 10 kts | 118° |
| 2026-05-08 17:31 | 55.97102 | 37.43106 | 641 ft | 8 kts | 135° |
| 2026-05-08 17:32 | 55.97089 | 37.43182 | 638 ft | 6 kts | 86° |
| 2026-05-08 17:32 | 55.97079 | 37.43224 | 645 ft | 7 kts | 131° |
| 2026-05-08 17:32 | 55.97034 | 37.43256 | 642 ft | 6 kts | 166° |
| 2026-05-08 17:32 | 55.97031 | 37.43258 | 642 ft | 0 kts | 166° |